DCOKE LFMD-LEIB
Flight info
| Callsign | DCOKE |
|---|---|
| Flight time | 1h 27m |
| Altitude | 33000 |
| Route | STP DCT SORAS N850 POS |
| Aircraft | C25B/L-VGDW/C |
Departure
| Time | 2026-05-06 12:35 |
|---|---|
| Airport | Cannes Mandelieu Airport (LFMD) |
Arrival
| Time | 2026-05-06 14:02 |
|---|---|
| Airport | Ibiza Airport (LEIB) |
| Time | Latitude | Longitude | Altitude | Speed | Heading |
|---|---|---|---|---|---|
| 2026-05-06 12:23 | 43.54673 | 6.95368 | 13 ft | 0 kts | 172° |
| 2026-05-06 12:32 | 43.54653 | 6.95372 | 13 ft | 9 kts | 177° |
| 2026-05-06 12:33 | 43.54632 | 6.95307 | 13 ft | 10 kts | 266° |
| 2026-05-06 12:33 | 43.54679 | 6.95275 | 13 ft | 12 kts | 355° |
| 2026-05-06 12:33 | 43.54808 | 6.95253 | 13 ft | 22 kts | 353° |
| 2026-05-06 12:33 | 43.54977 | 6.95223 | 13 ft | 27 kts | 352° |
| 2026-05-06 12:34 | 43.55184 | 6.95185 | 13 ft | 32 kts | 352° |
| 2026-05-06 12:34 | 43.55406 | 6.95146 | 13 ft | 32 kts | 353° |
| 2026-05-06 12:34 | 43.55514 | 6.95092 | 13 ft | 13 kts | 260° |
| 2026-05-06 12:34 | 43.55481 | 6.94994 | 13 ft | 11 kts | 251° |
| 2026-05-06 12:35 | 43.55437 | 6.94970 | 13 ft | 0 kts | 172° |
| 2026-05-06 12:35 | 43.55036 | 6.95044 | 11 ft | 123 kts | 172° |
| 2026-05-06 12:35 | 43.53948 | 6.95265 | 633 ft | 178 kts | 177° |
| 2026-05-06 12:35 | 43.52590 | 6.95653 | 1830 ft | 229 kts | 169° |
| 2026-05-06 12:36 | 43.50934 | 6.96736 | 2007 ft | 270 kts | 155° |
| 2026-05-06 12:36 | 43.49435 | 6.97939 | 2578 ft | 258 kts | 150° |
| 2026-05-06 12:36 | 43.48001 | 6.99806 | 3560 ft | 304 kts | 135° |
| 2026-05-06 12:36 | 43.46603 | 7.02086 | 5226 ft | 310 kts | 131° |
| 2026-05-06 12:37 | 43.45188 | 7.04388 | 6913 ft | 320 kts | 134° |
| 2026-05-06 12:37 | 43.43666 | 7.06651 | 8507 ft | 324 kts | 142° |
| 2026-05-06 12:37 | 43.41662 | 7.07900 | 10143 ft | 317 kts | 176° |
| 2026-05-06 12:37 | 43.39529 | 7.07541 | 11727 ft | 311 kts | 204° |
| 2026-05-06 12:38 | 43.37754 | 7.05850 | 13197 ft | 315 kts | 226° |
| 2026-05-06 12:38 | 43.36546 | 7.03343 | 14618 ft | 319 kts | 247° |
| 2026-05-06 12:38 | 43.35779 | 7.00490 | 16163 ft | 317 kts | 248° |
| 2026-05-06 12:38 | 43.34948 | 6.97683 | 17652 ft | 318 kts | 245° |
| 2026-05-06 12:39 | 43.33974 | 6.94941 | 18927 ft | 320 kts | 242° |
| 2026-05-06 12:39 | 43.32979 | 6.92172 | 19996 ft | 326 kts | 243° |
| 2026-05-06 12:39 | 43.32010 | 6.89335 | 21073 ft | 330 kts | 243° |
| 2026-05-06 12:39 | 43.31035 | 6.86460 | 22097 ft | 335 kts | 243° |
| 2026-05-06 12:40 | 43.30037 | 6.83552 | 23119 ft | 339 kts | 242° |
| 2026-05-06 12:40 | 43.29034 | 6.80659 | 23998 ft | 341 kts | 242° |
| 2026-05-06 12:40 | 43.27997 | 6.77662 | 24755 ft | 345 kts | 242° |
| 2026-05-06 12:40 | 43.26980 | 6.74708 | 25456 ft | 349 kts | 242° |
| 2026-05-06 12:41 | 43.25935 | 6.71683 | 26133 ft | 352 kts | 242° |
| 2026-05-06 12:41 | 43.24878 | 6.68634 | 26759 ft | 355 kts | 242° |
| 2026-05-06 12:41 | 43.23821 | 6.65552 | 27342 ft | 359 kts | 242° |
| 2026-05-06 12:41 | 43.22981 | 6.62294 | 27851 ft | 365 kts | 249° |
| 2026-05-06 12:42 | 43.22387 | 6.58877 | 28352 ft | 372 kts | 255° |
| 2026-05-06 12:42 | 43.22084 | 6.55323 | 28828 ft | 379 kts | 259° |
| 2026-05-06 12:42 | 43.22089 | 6.51665 | 29254 ft | 386 kts | 264° |
| 2026-05-06 12:42 | 43.22151 | 6.47974 | 29604 ft | 389 kts | 264° |
| 2026-05-06 12:43 | 43.22188 | 6.44259 | 30006 ft | 391 kts | 264° |
| 2026-05-06 12:43 | 43.22244 | 6.40514 | 30304 ft | 393 kts | 264° |
| 2026-05-06 12:43 | 43.22307 | 6.36756 | 30604 ft | 395 kts | 264° |
| 2026-05-06 12:43 | 43.22363 | 6.32981 | 30883 ft | 396 kts | 264° |
| 2026-05-06 12:44 | 43.22403 | 6.29242 | 31162 ft | 398 kts | 264° |
| 2026-05-06 12:44 | 43.22448 | 6.25430 | 31361 ft | 400 kts | 264° |
| 2026-05-06 12:44 | 43.22520 | 6.21603 | 31589 ft | 402 kts | 264° |
| 2026-05-06 12:44 | 43.22563 | 6.17772 | 31807 ft | 403 kts | 264° |
| 2026-05-06 12:45 | 43.22604 | 6.13922 | 32041 ft | 404 kts | 264° |
| 2026-05-06 12:45 | 43.22456 | 6.10092 | 32198 ft | 398 kts | 255° |
| 2026-05-06 12:45 | 43.20458 | 6.03258 | 32389 ft | 373 kts | 234° |
| 2026-05-06 12:46 | 43.18803 | 6.00671 | 32379 ft | 360 kts | 224° |
| 2026-05-06 12:46 | 43.14668 | 5.97137 | 32323 ft | 347 kts | 205° |
| 2026-05-06 12:47 | 43.10208 | 5.94887 | 32332 ft | 335 kts | 205° |
| 2026-05-06 12:47 | 43.05914 | 5.92604 | 32299 ft | 327 kts | 205° |
| 2026-05-06 12:48 | 43.01690 | 5.90404 | 32292 ft | 322 kts | 205° |
| 2026-05-06 12:48 | 42.98231 | 5.88590 | 32287 ft | 319 kts | 205° |
| 2026-05-06 12:49 | 42.93432 | 5.86086 | 32285 ft | 316 kts | 205° |
| 2026-05-06 12:49 | 42.90002 | 5.84297 | 32283 ft | 314 kts | 205° |
| 2026-05-06 12:50 | 42.85952 | 5.82188 | 32249 ft | 313 kts | 205° |
| 2026-05-06 12:50 | 42.81892 | 5.80076 | 32247 ft | 312 kts | 205° |
| 2026-05-06 12:51 | 42.77842 | 5.77972 | 32250 ft | 311 kts | 205° |
| 2026-05-06 12:51 | 42.73801 | 5.75875 | 32248 ft | 310 kts | 205° |
| 2026-05-06 12:52 | 42.69761 | 5.73781 | 32247 ft | 310 kts | 205° |
| 2026-05-06 12:52 | 42.65757 | 5.71710 | 32246 ft | 310 kts | 205° |
| 2026-05-06 12:53 | 42.61722 | 5.69626 | 32283 ft | 310 kts | 206° |
| 2026-05-06 12:53 | 42.57679 | 5.67541 | 32281 ft | 311 kts | 205° |
| 2026-05-06 12:54 | 42.53627 | 5.65454 | 32280 ft | 311 kts | 205° |
| 2026-05-06 12:54 | 42.49572 | 5.63370 | 32285 ft | 312 kts | 205° |
| 2026-05-06 12:55 | 42.45515 | 5.61288 | 32261 ft | 312 kts | 205° |
| 2026-05-06 12:55 | 42.41460 | 5.59209 | 32263 ft | 312 kts | 205° |
| 2026-05-06 12:56 | 42.37416 | 5.57138 | 32261 ft | 312 kts | 205° |
| 2026-05-06 12:56 | 42.33356 | 5.55062 | 32261 ft | 312 kts | 205° |
| 2026-05-06 12:57 | 42.29293 | 5.52986 | 32265 ft | 312 kts | 206° |
| 2026-05-06 12:57 | 42.25228 | 5.50912 | 32240 ft | 312 kts | 206° |
| 2026-05-06 12:58 | 42.21157 | 5.48838 | 32240 ft | 312 kts | 206° |
| 2026-05-06 12:58 | 42.17114 | 5.46781 | 32241 ft | 312 kts | 206° |
| 2026-05-06 12:59 | 42.13040 | 5.44711 | 32248 ft | 312 kts | 205° |
| 2026-05-06 12:59 | 42.08967 | 5.42644 | 32250 ft | 312 kts | 205° |
| 2026-05-06 13:00 | 42.04889 | 5.40579 | 32216 ft | 314 kts | 205° |
| 2026-05-06 13:00 | 42.00715 | 5.38467 | 32224 ft | 328 kts | 205° |
| 2026-05-06 13:01 | 41.96404 | 5.36293 | 32234 ft | 333 kts | 205° |
| 2026-05-06 13:01 | 41.92035 | 5.34089 | 32246 ft | 337 kts | 205° |
| 2026-05-06 13:02 | 41.87621 | 5.31866 | 32276 ft | 340 kts | 205° |
| 2026-05-06 13:02 | 41.83203 | 5.29644 | 32256 ft | 342 kts | 205° |
| 2026-05-06 13:03 | 41.78734 | 5.27400 | 32258 ft | 343 kts | 205° |
| 2026-05-06 13:03 | 41.74251 | 5.25153 | 32259 ft | 344 kts | 205° |
| 2026-05-06 13:04 | 41.69755 | 5.22903 | 32260 ft | 345 kts | 205° |
| 2026-05-06 13:04 | 41.65256 | 5.20653 | 32217 ft | 345 kts | 205° |
| 2026-05-06 13:05 | 41.60745 | 5.18402 | 32219 ft | 347 kts | 205° |
| 2026-05-06 13:05 | 41.56218 | 5.16146 | 32220 ft | 347 kts | 205° |
| 2026-05-06 13:06 | 41.51717 | 5.13906 | 32220 ft | 348 kts | 205° |
| 2026-05-06 13:06 | 41.47179 | 5.11651 | 32222 ft | 348 kts | 205° |
| 2026-05-06 13:07 | 41.42634 | 5.09396 | 32198 ft | 348 kts | 205° |
| 2026-05-06 13:07 | 41.38081 | 5.07141 | 32198 ft | 349 kts | 205° |
| 2026-05-06 13:08 | 41.33526 | 5.04887 | 32199 ft | 349 kts | 205° |
| 2026-05-06 13:08 | 41.28985 | 5.02644 | 32199 ft | 350 kts | 205° |
| 2026-05-06 13:09 | 41.24419 | 5.00392 | 32201 ft | 350 kts | 205° |
| 2026-05-06 13:09 | 41.19845 | 4.98139 | 32170 ft | 351 kts | 205° |
| 2026-05-06 13:10 | 41.15260 | 4.95885 | 32169 ft | 352 kts | 205° |
| 2026-05-06 13:10 | 41.10666 | 4.93629 | 32199 ft | 352 kts | 205° |
| 2026-05-06 13:11 | 41.06071 | 4.91377 | 32197 ft | 352 kts | 205° |
| 2026-05-06 13:11 | 41.01476 | 4.89126 | 32164 ft | 352 kts | 205° |
| 2026-05-06 13:12 | 40.96868 | 4.86875 | 32163 ft | 353 kts | 205° |
| 2026-05-06 13:12 | 40.92254 | 4.84622 | 32163 ft | 354 kts | 205° |
| 2026-05-06 13:13 | 40.87629 | 4.82369 | 32165 ft | 354 kts | 205° |
| 2026-05-06 13:13 | 40.83005 | 4.80119 | 32166 ft | 354 kts | 205° |
| 2026-05-06 13:14 | 40.78403 | 4.77882 | 32139 ft | 355 kts | 205° |
| 2026-05-06 13:14 | 40.73754 | 4.75627 | 32140 ft | 355 kts | 205° |
| 2026-05-06 13:15 | 40.69102 | 4.73373 | 32143 ft | 356 kts | 205° |
| 2026-05-06 13:15 | 40.64480 | 4.71137 | 32145 ft | 356 kts | 205° |
| 2026-05-06 13:16 | 40.59915 | 4.68679 | 32138 ft | 352 kts | 212° |
| 2026-05-06 13:16 | 40.55944 | 4.65006 | 32135 ft | 347 kts | 224° |
| 2026-05-06 13:17 | 40.52812 | 4.60198 | 32131 ft | 346 kts | 237° |
| 2026-05-06 13:17 | 40.50530 | 4.54674 | 32162 ft | 346 kts | 242° |
| 2026-05-06 13:18 | 40.48302 | 4.49081 | 32164 ft | 345 kts | 242° |
| 2026-05-06 13:18 | 40.46100 | 4.43484 | 32161 ft | 345 kts | 242° |
| 2026-05-06 13:19 | 40.43890 | 4.37904 | 32162 ft | 344 kts | 242° |
| 2026-05-06 13:19 | 40.41679 | 4.32326 | 32162 ft | 344 kts | 242° |
| 2026-05-06 13:20 | 40.39463 | 4.26747 | 32128 ft | 344 kts | 242° |
| 2026-05-06 13:20 | 40.37254 | 4.21200 | 32125 ft | 345 kts | 242° |
| 2026-05-06 13:21 | 40.35021 | 4.15597 | 32146 ft | 345 kts | 242° |
| 2026-05-06 13:21 | 40.32794 | 4.10022 | 32147 ft | 345 kts | 242° |
| 2026-05-06 13:22 | 40.30577 | 4.04482 | 32154 ft | 345 kts | 242° |
| 2026-05-06 13:22 | 40.28346 | 3.98916 | 32161 ft | 345 kts | 242° |
| 2026-05-06 13:23 | 40.26110 | 3.93348 | 32161 ft | 345 kts | 242° |
| 2026-05-06 13:23 | 40.23869 | 3.87778 | 32162 ft | 345 kts | 242° |
| 2026-05-06 13:24 | 40.21644 | 3.82260 | 32164 ft | 345 kts | 242° |
| 2026-05-06 13:24 | 40.19403 | 3.76708 | 32182 ft | 344 kts | 242° |
| 2026-05-06 13:25 | 40.17159 | 3.71162 | 32144 ft | 345 kts | 242° |
| 2026-05-06 13:25 | 40.14910 | 3.65610 | 31547 ft | 359 kts | 242° |
| 2026-05-06 13:25 | 40.13709 | 3.62646 | 30057 ft | 378 kts | 242° |
| 2026-05-06 13:26 | 40.12442 | 3.59540 | 28840 ft | 388 kts | 242° |
| 2026-05-06 13:26 | 40.11193 | 3.56454 | 28164 ft | 381 kts | 242° |
| 2026-05-06 13:26 | 40.09952 | 3.53412 | 27419 ft | 378 kts | 242° |
| 2026-05-06 13:26 | 40.08720 | 3.50383 | 26721 ft | 374 kts | 242° |
| 2026-05-06 13:27 | 40.07495 | 3.47388 | 26046 ft | 371 kts | 242° |
| 2026-05-06 13:27 | 40.06288 | 3.44425 | 25404 ft | 368 kts | 242° |
| 2026-05-06 13:27 | 40.05084 | 3.41486 | 24790 ft | 365 kts | 241° |
| 2026-05-06 13:27 | 40.03895 | 3.38575 | 24199 ft | 363 kts | 242° |
| 2026-05-06 13:28 | 40.02720 | 3.35710 | 23644 ft | 360 kts | 241° |
| 2026-05-06 13:28 | 40.01545 | 3.32840 | 23022 ft | 358 kts | 242° |
| 2026-05-06 13:28 | 40.00373 | 3.29987 | 22420 ft | 355 kts | 241° |
| 2026-05-06 13:28 | 39.99207 | 3.27148 | 21846 ft | 353 kts | 242° |
| 2026-05-06 13:29 | 39.98051 | 3.24334 | 21285 ft | 351 kts | 241° |
| 2026-05-06 13:29 | 39.96896 | 3.21530 | 20743 ft | 350 kts | 242° |
| 2026-05-06 13:29 | 39.95749 | 3.18739 | 20255 ft | 348 kts | 242° |
| 2026-05-06 13:29 | 39.94595 | 3.15977 | 19760 ft | 346 kts | 240° |
| 2026-05-06 13:30 | 39.93195 | 3.13435 | 19265 ft | 345 kts | 231° |
| 2026-05-06 13:30 | 39.91562 | 3.11191 | 18803 ft | 346 kts | 224° |
| 2026-05-06 13:30 | 39.89666 | 3.09276 | 18373 ft | 345 kts | 217° |
| 2026-05-06 13:30 | 39.87576 | 3.07716 | 17870 ft | 346 kts | 211° |
| 2026-05-06 13:31 | 39.85486 | 3.06186 | 17407 ft | 344 kts | 213° |
| 2026-05-06 13:31 | 39.83416 | 3.04652 | 16979 ft | 342 kts | 212° |
| 2026-05-06 13:31 | 39.81336 | 3.03145 | 16538 ft | 342 kts | 212° |
| 2026-05-06 13:31 | 39.79263 | 3.01643 | 16153 ft | 340 kts | 212° |
| 2026-05-06 13:32 | 39.77199 | 3.00150 | 15778 ft | 339 kts | 212° |
| 2026-05-06 13:32 | 39.75144 | 2.98652 | 15377 ft | 338 kts | 212° |
| 2026-05-06 13:32 | 39.73095 | 2.97166 | 15020 ft | 337 kts | 211° |
| 2026-05-06 13:32 | 39.71047 | 2.95683 | 14662 ft | 336 kts | 212° |
| 2026-05-06 13:33 | 39.69008 | 2.94209 | 14346 ft | 334 kts | 211° |
| 2026-05-06 13:33 | 39.66981 | 2.92737 | 14020 ft | 333 kts | 212° |
| 2026-05-06 13:33 | 39.64957 | 2.91277 | 13712 ft | 332 kts | 211° |
| 2026-05-06 13:33 | 39.62939 | 2.89818 | 13360 ft | 331 kts | 211° |
| 2026-05-06 13:34 | 39.60928 | 2.88363 | 13045 ft | 330 kts | 211° |
| 2026-05-06 13:34 | 39.58924 | 2.86921 | 12739 ft | 329 kts | 211° |
| 2026-05-06 13:34 | 39.56920 | 2.85469 | 12443 ft | 329 kts | 211° |
| 2026-05-06 13:34 | 39.54924 | 2.84039 | 12170 ft | 328 kts | 211° |
| 2026-05-06 13:35 | 39.52929 | 2.82593 | 11864 ft | 328 kts | 211° |
| 2026-05-06 13:35 | 39.50958 | 2.81182 | 11629 ft | 328 kts | 211° |
| 2026-05-06 13:35 | 39.48965 | 2.79740 | 11379 ft | 327 kts | 211° |
| 2026-05-06 13:35 | 39.46975 | 2.78317 | 11138 ft | 327 kts | 211° |
| 2026-05-06 13:36 | 39.44991 | 2.76881 | 10901 ft | 326 kts | 212° |
| 2026-05-06 13:36 | 39.43203 | 2.75114 | 10614 ft | 324 kts | 225° |
| 2026-05-06 13:36 | 39.42161 | 2.73684 | 10476 ft | 322 kts | 230° |
| 2026-05-06 13:36 | 39.40757 | 2.71431 | 10245 ft | 322 kts | 232° |
| 2026-05-06 13:37 | 39.39342 | 2.69185 | 10037 ft | 321 kts | 232° |
| 2026-05-06 13:37 | 39.37935 | 2.66944 | 9817 ft | 321 kts | 232° |
| 2026-05-06 13:37 | 39.36529 | 2.64722 | 9684 ft | 318 kts | 232° |
| 2026-05-06 13:37 | 39.35150 | 2.62537 | 9484 ft | 318 kts | 232° |
| 2026-05-06 13:38 | 39.33759 | 2.60321 | 9296 ft | 317 kts | 232° |
| 2026-05-06 13:38 | 39.32362 | 2.58120 | 9111 ft | 317 kts | 232° |
| 2026-05-06 13:38 | 39.30965 | 2.55901 | 8828 ft | 320 kts | 231° |
| 2026-05-06 13:38 | 39.29556 | 2.53676 | 8661 ft | 319 kts | 231° |
| 2026-05-06 13:39 | 39.28155 | 2.51453 | 8503 ft | 319 kts | 231° |
| 2026-05-06 13:39 | 39.26748 | 2.49244 | 8333 ft | 319 kts | 231° |
| 2026-05-06 13:39 | 39.25351 | 2.47026 | 8170 ft | 318 kts | 231° |
| 2026-05-06 13:39 | 39.23944 | 2.44817 | 8019 ft | 317 kts | 231° |
| 2026-05-06 13:40 | 39.22548 | 2.42608 | 7874 ft | 317 kts | 231° |
| 2026-05-06 13:40 | 39.21149 | 2.40412 | 7731 ft | 316 kts | 231° |
| 2026-05-06 13:40 | 39.19759 | 2.38218 | 7593 ft | 316 kts | 231° |
| 2026-05-06 13:40 | 39.18363 | 2.36023 | 7442 ft | 316 kts | 231° |
| 2026-05-06 13:41 | 39.16987 | 2.33861 | 7314 ft | 315 kts | 231° |
| 2026-05-06 13:41 | 39.15600 | 2.31679 | 7181 ft | 315 kts | 231° |
| 2026-05-06 13:41 | 39.14207 | 2.29497 | 7038 ft | 315 kts | 231° |
| 2026-05-06 13:41 | 39.12816 | 2.27312 | 6911 ft | 315 kts | 231° |
| 2026-05-06 13:42 | 39.11423 | 2.25133 | 6800 ft | 314 kts | 231° |
| 2026-05-06 13:42 | 39.10038 | 2.22956 | 6680 ft | 314 kts | 230° |
| 2026-05-06 13:42 | 39.08643 | 2.20775 | 6500 ft | 316 kts | 230° |
| 2026-05-06 13:42 | 39.07243 | 2.18591 | 6380 ft | 316 kts | 230° |
| 2026-05-06 13:43 | 39.05852 | 2.16405 | 6269 ft | 316 kts | 230° |
| 2026-05-06 13:43 | 39.04450 | 2.14225 | 6141 ft | 315 kts | 230° |
| 2026-05-06 13:43 | 39.03054 | 2.12037 | 6015 ft | 316 kts | 230° |
| 2026-05-06 13:43 | 39.01656 | 2.09864 | 5913 ft | 315 kts | 230° |
| 2026-05-06 13:44 | 39.00284 | 2.07718 | 5820 ft | 314 kts | 230° |
| 2026-05-06 13:44 | 38.98887 | 2.05545 | 5693 ft | 315 kts | 230° |
| 2026-05-06 13:44 | 38.97493 | 2.03373 | 5588 ft | 315 kts | 230° |
| 2026-05-06 13:44 | 38.96099 | 2.01207 | 5502 ft | 314 kts | 230° |
| 2026-05-06 13:45 | 38.94713 | 1.99049 | 5444 ft | 312 kts | 230° |
| 2026-05-06 13:45 | 38.91952 | 1.94761 | 5326 ft | 311 kts | 230° |
| 2026-05-06 13:45 | 38.90788 | 1.92444 | 5250 ft | 311 kts | 245° |
| 2026-05-06 13:46 | 38.90093 | 1.89820 | 5180 ft | 310 kts | 255° |
| 2026-05-06 13:46 | 38.89546 | 1.87142 | 5122 ft | 310 kts | 255° |
| 2026-05-06 13:46 | 38.89004 | 1.84457 | 5069 ft | 310 kts | 255° |
| 2026-05-06 13:46 | 38.88460 | 1.81781 | 5012 ft | 310 kts | 255° |
| 2026-05-06 13:47 | 38.87909 | 1.79137 | 4963 ft | 310 kts | 255° |
| 2026-05-06 13:47 | 38.87361 | 1.76457 | 4910 ft | 311 kts | 255° |
| 2026-05-06 13:47 | 38.86806 | 1.73772 | 4861 ft | 311 kts | 255° |
| 2026-05-06 13:47 | 38.86254 | 1.71091 | 4805 ft | 311 kts | 255° |
| 2026-05-06 13:48 | 38.85699 | 1.68406 | 4743 ft | 311 kts | 255° |
| 2026-05-06 13:48 | 38.85141 | 1.65711 | 4688 ft | 312 kts | 255° |
| 2026-05-06 13:48 | 38.84582 | 1.63018 | 4643 ft | 312 kts | 255° |
| 2026-05-06 13:48 | 38.84024 | 1.60319 | 4596 ft | 312 kts | 255° |
| 2026-05-06 13:49 | 38.83459 | 1.57630 | 4532 ft | 312 kts | 254° |
| 2026-05-06 13:49 | 38.82856 | 1.54963 | 4506 ft | 310 kts | 253° |
| 2026-05-06 13:49 | 38.82257 | 1.52313 | 4508 ft | 309 kts | 254° |
| 2026-05-06 13:49 | 38.81677 | 1.49659 | 4510 ft | 309 kts | 254° |
| 2026-05-06 13:50 | 38.81090 | 1.47006 | 4513 ft | 309 kts | 254° |
| 2026-05-06 13:50 | 38.80500 | 1.44356 | 4512 ft | 308 kts | 254° |
| 2026-05-06 13:50 | 38.79717 | 1.41824 | 4500 ft | 305 kts | 239° |
| 2026-05-06 13:50 | 38.78663 | 1.39500 | 4466 ft | 300 kts | 242° |
| 2026-05-06 13:51 | 38.77749 | 1.37103 | 4206 ft | 305 kts | 243° |
| 2026-05-06 13:51 | 38.76763 | 1.34678 | 4008 ft | 306 kts | 241° |
| 2026-05-06 13:51 | 38.75756 | 1.32298 | 4008 ft | 301 kts | 242° |
| 2026-05-06 13:51 | 38.74780 | 1.29946 | 4007 ft | 297 kts | 242° |
| 2026-05-06 13:52 | 38.73816 | 1.27614 | 4007 ft | 294 kts | 242° |
| 2026-05-06 13:52 | 38.72860 | 1.25303 | 4002 ft | 293 kts | 241° |
| 2026-05-06 13:52 | 38.71897 | 1.23011 | 4001 ft | 287 kts | 241° |
| 2026-05-06 13:52 | 38.70985 | 1.20816 | 4001 ft | 272 kts | 242° |
| 2026-05-06 13:53 | 38.70112 | 1.18731 | 3993 ft | 261 kts | 242° |
| 2026-05-06 13:53 | 38.69457 | 1.16635 | 3984 ft | 250 kts | 264° |
| 2026-05-06 13:53 | 38.69865 | 1.14553 | 3984 ft | 242 kts | 305° |
| 2026-05-06 13:53 | 38.71168 | 1.13299 | 3989 ft | 234 kts | 343° |
| 2026-05-06 13:54 | 38.72731 | 1.12992 | 3911 ft | 231 kts | 6° |
| 2026-05-06 13:54 | 38.74311 | 1.13468 | 3655 ft | 237 kts | 13° |
| 2026-05-06 13:54 | 38.75970 | 1.13696 | 3405 ft | 241 kts | 8° |
| 2026-05-06 13:54 | 38.77628 | 1.13924 | 3160 ft | 234 kts | 15° |
| 2026-05-06 13:55 | 38.78902 | 1.14951 | 3000 ft | 208 kts | 54° |
| 2026-05-06 13:55 | 38.79240 | 1.16612 | 2985 ft | 187 kts | 96° |
| 2026-05-06 13:55 | 38.78638 | 1.17914 | 2990 ft | 164 kts | 143° |
| 2026-05-06 13:55 | 38.77564 | 1.18113 | 2996 ft | 165 kts | 194° |
| 2026-05-06 13:56 | 38.76659 | 1.17253 | 2992 ft | 165 kts | 239° |
| 2026-05-06 13:56 | 38.76549 | 1.15840 | 2994 ft | 164 kts | 292° |
| 2026-05-06 13:56 | 38.77313 | 1.14864 | 2994 ft | 155 kts | 347° |
| 2026-05-06 13:56 | 38.78307 | 1.15082 | 3006 ft | 147 kts | 41° |
| 2026-05-06 13:57 | 38.78723 | 1.16232 | 3009 ft | 147 kts | 85° |
| 2026-05-06 13:57 | 38.78919 | 1.17495 | 2979 ft | 145 kts | 59° |
| 2026-05-06 13:57 | 38.79509 | 1.18534 | 3002 ft | 144 kts | 65° |
| 2026-05-06 13:57 | 38.79943 | 1.19611 | 2863 ft | 130 kts | 59° |
| 2026-05-06 13:58 | 38.80355 | 1.20574 | 2693 ft | 119 kts | 65° |
| 2026-05-06 13:58 | 38.80740 | 1.21471 | 2531 ft | 115 kts | 62° |
| 2026-05-06 13:58 | 38.81117 | 1.22404 | 2383 ft | 119 kts | 65° |
| 2026-05-06 13:58 | 38.81511 | 1.23329 | 2218 ft | 119 kts | 61° |
| 2026-05-06 13:59 | 38.81887 | 1.24264 | 2064 ft | 117 kts | 65° |
| 2026-05-06 13:59 | 38.82277 | 1.25184 | 1897 ft | 118 kts | 62° |
| 2026-05-06 13:59 | 38.82654 | 1.26121 | 1745 ft | 119 kts | 64° |
| 2026-05-06 13:59 | 38.83059 | 1.27059 | 1583 ft | 121 kts | 60° |
| 2026-05-06 14:00 | 38.83432 | 1.28013 | 1427 ft | 118 kts | 66° |
| 2026-05-06 14:00 | 38.83819 | 1.28960 | 1261 ft | 121 kts | 64° |
| 2026-05-06 14:00 | 38.84197 | 1.29903 | 1098 ft | 118 kts | 65° |
| 2026-05-06 14:00 | 38.84602 | 1.30819 | 946 ft | 117 kts | 66° |
| 2026-05-06 14:01 | 38.84970 | 1.31727 | 791 ft | 115 kts | 66° |
| 2026-05-06 14:01 | 38.85364 | 1.32630 | 642 ft | 118 kts | 68° |
| 2026-05-06 14:01 | 38.85725 | 1.33579 | 463 ft | 119 kts | 69° |
| 2026-05-06 14:01 | 38.86127 | 1.34504 | 269 ft | 118 kts | 68° |
| 2026-05-06 14:02 | 38.86497 | 1.35414 | 112 ft | 114 kts | 65° |
| 2026-05-06 14:02 | 38.86859 | 1.36292 | 10 ft | 101 kts | 62° |
| 2026-05-06 14:02 | 38.87111 | 1.36908 | 5 ft | 36 kts | 62° |
| 2026-05-06 14:02 | 38.87220 | 1.37164 | 6 ft | 31 kts | 61° |
| 2026-05-06 14:03 | 38.87336 | 1.37397 | 5 ft | 31 kts | 39° |
| 2026-05-06 14:03 | 38.87458 | 1.37507 | 4 ft | 21 kts | 32° |
| 2026-05-06 14:03 | 38.87588 | 1.37562 | 4 ft | 20 kts | 331° |
| 2026-05-06 14:03 | 38.87685 | 1.37487 | 3 ft | 5 kts | 332° |
| 2026-05-06 14:04 | 38.87709 | 1.37510 | 3 ft | 6 kts | 62° |
| 2026-05-06 14:04 | 38.87710 | 1.37536 | 4 ft | 2 kts | 151° |
| 2026-05-06 14:04 | 38.87698 | 1.37544 | 4 ft | 3 kts | 154° |
| 2026-05-06 14:04 | 38.87697 | 1.37545 | 4 ft | 0 kts | 154° |